sensor_id;sensor_type;location;lat;lon;timestamp;pressure;altitude;pressure_sealevel;temperature;humidity
60371;BME280;48550;40.588;49.684;2023-04-07T00:01:47;101267.63;;;9.62;100.00
60371;BME280;48550;40.588;49.684;2023-04-07T00:04:12;101261.44;;;9.62;100.00
60371;BME280;48550;40.588;49.684;2023-04-07T00:06:38;101264.53;;;9.65;100.00
60371;BME280;48550;40.588;49.684;2023-04-07T00:09:05;101272.38;;;9.67;100.00
60371;BME280;48550;40.588;49.684;2023-04-07T00:11:31;101268.25;;;9.71;100.00
60371;BME280;48550;40.588;49.684;2023-04-07T00:13:56;101265.34;;;9.72;100.00
60371;BME280;48550;40.588;49.684;2023-04-07T00:16:22;101256.28;;;9.73;100.00
60371;BME280;48550;40.588;49.684;2023-04-07T00:18:48;101263.69;;;9.71;100.00
60371;BME280;48550;40.588;49.684;2023-04-07T00:21:14;101257.53;;;9.71;100.00
60371;BME280;48550;40.588;49.684;2023-04-07T00:23:39;101261.63;;;9.73;100.00
60371;BME280;48550;40.588;49.684;2023-04-07T00:26:05;101261.38;;;9.81;100.00
60371;BME280;48550;40.588;49.684;2023-04-07T00:28:31;101241.41;;;9.77;100.00
60371;BME280;48550;40.588;49.684;2023-04-07T00:30:56;101231.50;;;9.78;100.00
60371;BME280;48550;40.588;49.684;2023-04-07T00:33:22;101232.75;;;9.75;100.00
60371;BME280;48550;40.588;49.684;2023-04-07T00:35:47;101224.97;;;9.67;100.00
60371;BME280;48550;40.588;49.684;2023-04-07T00:38:13;101230.72;;;9.71;100.00
60371;BME280;48550;40.588;49.684;2023-04-07T00:40:39;101235.47;;;9.69;100.00
60371;BME280;48550;40.588;49.684;2023-04-07T00:43:05;101226.78;;;9.73;100.00
60371;BME280;48550;40.588;49.684;2023-04-07T00:45:31;101233.19;;;9.72;100.00
60371;BME280;48550;40.588;49.684;2023-04-07T00:47:57;101230.72;;;9.71;100.00
60371;BME280;48550;40.588;49.684;2023-04-07T00:50:23;101236.06;;;9.71;100.00
60371;BME280;48550;40.588;49.684;2023-04-07T00:52:49;101237.69;;;9.78;100.00
60371;BME280;48550;40.588;49.684;2023-04-07T00:55:15;101231.72;;;9.76;100.00
60371;BME280;48550;40.588;49.684;2023-04-07T00:57:41;101244.50;;;9.74;100.00
60371;BME280;48550;40.588;49.684;2023-04-07T01:00:08;101237.06;;;9.76;100.00
60371;BME280;48550;40.588;49.684;2023-04-07T01:05:25;101263.22;;;9.87;100.00
60371;BME280;48550;40.588;49.684;2023-04-07T01:08:13;101258.66;;;9.88;100.00
60371;BME280;48550;40.588;49.684;2023-04-07T01:10:51;101264.41;;;9.92;100.00
60371;BME280;48550;40.588;49.684;2023-04-07T01:13:30;101262.69;;;10.04;100.00
60371;BME280;48550;40.588;49.684;2023-04-07T01:16:00;101262.88;;;10.09;100.00
60371;BME280;48550;40.588;49.684;2023-04-07T01:18:31;101270.50;;;10.12;100.00
60371;BME280;48550;40.588;49.684;2023-04-07T01:21:08;101269.00;;;10.23;100.00
60371;BME280;48550;40.588;49.684;2023-04-07T01:26:38;101278.72;;;10.17;100.00
60371;BME280;48550;40.588;49.684;2023-04-07T01:29:36;101283.25;;;10.16;100.00
60371;BME280;48550;40.588;49.684;2023-04-07T01:32:04;101282.91;;;10.06;100.00
60371;BME280;48550;40.588;49.684;2023-04-07T01:34:31;101285.53;;;10.13;100.00
60371;BME280;48550;40.588;49.684;2023-04-07T01:36:58;101295.66;;;10.11;100.00
60371;BME280;48550;40.588;49.684;2023-04-07T01:39:26;101295.22;;;10.14;100.00
60371;BME280;48550;40.588;49.684;2023-04-07T01:41:53;101293.38;;;10.14;100.00
60371;BME280;48550;40.588;49.684;2023-04-07T01:44:20;101302.63;;;10.25;100.00
60371;BME280;48550;40.588;49.684;2023-04-07T01:46:47;101306.91;;;10.33;100.00
60371;BME280;48550;40.588;49.684;2023-04-07T01:49:15;101304.63;;;10.36;100.00
60371;BME280;48550;40.588;49.684;2023-04-07T01:51:42;101302.94;;;10.42;100.00
60371;BME280;48550;40.588;49.684;2023-04-07T01:54:09;101299.25;;;10.36;100.00
60371;BME280;48550;40.588;49.684;2023-04-07T01:56:35;101304.59;;;10.43;100.00
60371;BME280;48550;40.588;49.684;2023-04-07T01:59:00;101309.53;;;10.39;100.00
60371;BME280;48550;40.588;49.684;2023-04-07T02:01:26;101314.75;;;10.34;100.00
60371;BME280;48550;40.588;49.684;2023-04-07T02:04:25;101320.59;;;10.18;100.00
60371;BME280;48550;40.588;49.684;2023-04-07T02:07:00;101318.56;;;10.13;100.00
60371;BME280;48550;40.588;49.684;2023-04-07T02:09:30;101326.63;;;10.07;100.00
60371;BME280;48550;40.588;49.684;2023-04-07T02:11:59;101333.84;;;10.06;100.00
60371;BME280;48550;40.588;49.684;2023-04-07T02:14:27;101339.25;;;10.00;100.00
60371;BME280;48550;40.588;49.684;2023-04-07T02:16:53;101332.44;;;10.04;100.00
60371;BME280;48550;40.588;49.684;2023-04-07T02:19:20;101344.34;;;10.14;100.00
60371;BME280;48550;40.588;49.684;2023-04-07T02:21:47;101348.44;;;10.17;100.00
60371;BME280;48550;40.588;49.684;2023-04-07T02:24:19;101333.22;;;10.11;100.00
60371;BME280;48550;40.588;49.684;2023-04-07T02:26:46;101348.47;;;10.10;100.00
60371;BME280;48550;40.588;49.684;2023-04-07T02:29:12;101353.44;;;10.07;100.00
60371;BME280;48550;40.588;49.684;2023-04-07T02:31:38;101343.53;;;10.07;100.00
60371;BME280;48550;40.588;49.684;2023-04-07T02:34:03;101348.69;;;10.09;100.00
60371;BME280;48550;40.588;49.684;2023-04-07T02:36:29;101352.78;;;10.25;100.00
60371;BME280;48550;40.588;49.684;2023-04-07T02:38:55;101350.44;;;10.41;100.00
60371;BME280;48550;40.588;49.684;2023-04-07T02:41:21;101354.06;;;10.54;100.00
60371;BME280;48550;40.588;49.684;2023-04-07T02:43:47;101368.75;;;10.51;100.00
60371;BME280;48550;40.588;49.684;2023-04-07T02:46:13;101366.63;;;10.60;100.00
60371;BME280;48550;40.588;49.684;2023-04-07T02:48:38;101368.09;;;10.56;100.00
60371;BME280;48550;40.588;49.684;2023-04-07T02:51:04;101376.63;;;10.46;100.00
60371;BME280;48550;40.588;49.684;2023-04-07T02:53:30;101375.97;;;10.50;100.00
60371;BME280;48550;40.588;49.684;2023-04-07T02:55:56;101374.09;;;10.51;100.00
60371;BME280;48550;40.588;49.684;2023-04-07T02:58:21;101372.16;;;10.65;100.00
60371;BME280;48550;40.588;49.684;2023-04-07T03:00:48;101367.34;;;10.73;100.00
60371;BME280;48550;40.588;49.684;2023-04-07T03:03:14;101381.84;;;10.66;100.00
60371;BME280;48550;40.588;49.684;2023-04-07T03:05:39;101392.63;;;10.59;100.00
60371;BME280;48550;40.588;49.684;2023-04-07T03:08:05;101380.22;;;10.65;100.00
60371;BME280;48550;40.588;49.684;2023-04-07T03:10:31;101382.28;;;10.63;100.00
60371;BME280;48550;40.588;49.684;2023-04-07T03:12:56;101377.34;;;10.60;100.00
60371;BME280;48550;40.588;49.684;2023-04-07T03:15:22;101380.66;;;10.62;100.00
60371;BME280;48550;40.588;49.684;2023-04-07T03:17:48;101388.06;;;10.66;100.00
60371;BME280;48550;40.588;49.684;2023-04-07T03:20:14;101392.22;;;10.87;100.00
60371;BME280;48550;40.588;49.684;2023-04-07T03:22:39;101397.94;;;10.97;100.00
60371;BME280;48550;40.588;49.684;2023-04-07T03:25:05;101390.38;;;11.12;100.00
60371;BME280;48550;40.588;49.684;2023-04-07T03:27:32;101394.09;;;11.11;100.00
60371;BME280;48550;40.588;49.684;2023-04-07T03:29:57;101394.63;;;11.27;100.00
60371;BME280;48550;40.588;49.684;2023-04-07T03:32:23;101391.13;;;11.26;100.00
60371;BME280;48550;40.588;49.684;2023-04-07T03:34:49;101387.19;;;11.47;100.00
60371;BME280;48550;40.588;49.684;2023-04-07T03:37:14;101397.28;;;11.70;100.00
60371;BME280;48550;40.588;49.684;2023-04-07T03:39:40;101382.56;;;11.97;100.00
60371;BME280;48550;40.588;49.684;2023-04-07T03:42:06;101393.13;;;12.29;100.00
60371;BME280;48550;40.588;49.684;2023-04-07T03:44:32;101396.78;;;12.64;100.00
60371;BME280;48550;40.588;49.684;2023-04-07T03:46:59;101397.66;;;12.88;100.00
60371;BME280;48550;40.588;49.684;2023-04-07T03:49:25;101398.78;;;13.22;100.00
60371;BME280;48550;40.588;49.684;2023-04-07T03:51:51;101393.56;;;13.39;100.00
60371;BME280;48550;40.588;49.684;2023-04-07T03:54:17;101387.34;;;13.39;100.00
60371;BME280;48550;40.588;49.684;2023-04-07T03:56:42;101379.81;;;13.29;100.00
60371;BME280;48550;40.588;49.684;2023-04-07T03:59:08;101379.19;;;13.15;100.00
60371;BME280;48550;40.588;49.684;2023-04-07T04:01:34;101378.25;;;13.10;100.00
60371;BME280;48550;40.588;49.684;2023-04-07T04:04:01;101377.13;;;13.41;100.00
60371;BME280;48550;40.588;49.684;2023-04-07T04:06:27;101373.72;;;13.57;96.75
60371;BME280;48550;40.588;49.684;2023-04-07T04:08:52;101368.44;;;13.62;97.29
60371;BME280;48550;40.588;49.684;2023-04-07T04:11:18;101353.19;;;13.56;83.48
60371;BME280;48550;40.588;49.684;2023-04-07T04:13:44;101343.94;;;13.63;85.66
60371;BME280;48550;40.588;49.684;2023-04-07T04:16:10;101328.81;;;13.51;85.58
60371;BME280;48550;40.588;49.684;2023-04-07T04:18:35;101324.13;;;13.23;83.57
60371;BME280;48550;40.588;49.684;2023-04-07T04:21:01;101324.50;;;13.38;83.52
60371;BME280;48550;40.588;49.684;2023-04-07T04:23:27;101327.63;;;13.12;84.91
60371;BME280;48550;40.588;49.684;2023-04-07T04:25:52;101348.34;;;12.99;85.00
60371;BME280;48550;40.588;49.684;2023-04-07T04:28:18;101347.50;;;12.76;87.84
60371;BME280;48550;40.588;49.684;2023-04-07T04:30:44;101348.47;;;13.04;85.49
60371;BME280;48550;40.588;49.684;2023-04-07T04:33:09;101338.56;;;13.40;85.08
60371;BME280;48550;40.588;49.684;2023-04-07T04:35:35;101339.59;;;13.62;82.11
60371;BME280;48550;40.588;49.684;2023-04-07T04:38:01;101343.06;;;13.75;78.71
60371;BME280;48550;40.588;49.684;2023-04-07T04:40:26;101344.31;;;13.95;78.60
60371;BME280;48550;40.588;49.684;2023-04-07T04:42:52;101343.72;;;14.34;73.17
60371;BME280;48550;40.588;49.684;2023-04-07T04:45:18;101345.44;;;14.85;69.71
60371;BME280;48550;40.588;49.684;2023-04-07T04:47:43;101353.59;;;15.40;69.61
60371;BME280;48550;40.588;49.684;2023-04-07T04:50:09;101359.25;;;15.39;67.13
60371;BME280;48550;40.588;49.684;2023-04-07T04:52:35;101358.88;;;15.30;68.22
60371;BME280;48550;40.588;49.684;2023-04-07T04:55:02;101356.88;;;15.42;68.84
60371;BME280;48550;40.588;49.684;2023-04-07T04:57:28;101350.34;;;15.99;67.76
60371;BME280;48550;40.588;49.684;2023-04-07T04:59:53;101343.94;;;16.59;64.19
60371;BME280;48550;40.588;49.684;2023-04-07T05:02:20;101348.84;;;16.35;62.68
60371;BME280;48550;40.588;49.684;2023-04-07T05:04:46;101346.56;;;16.00;62.97
60371;BME280;48550;40.588;49.684;2023-04-07T05:07:11;101344.59;;;17.40;58.84
60371;BME280;48550;40.588;49.684;2023-04-07T05:09:37;101339.06;;;19.36;51.29
60371;BME280;48550;40.588;49.684;2023-04-07T05:12:03;101344.81;;;20.58;44.90
60371;BME280;48550;40.588;49.684;2023-04-07T05:14:29;101365.09;;;21.92;42.79
60371;BME280;48550;40.588;49.684;2023-04-07T05:16:55;101371.59;;;22.39;42.04
60371;BME280;48550;40.588;49.684;2023-04-07T05:19:21;101373.06;;;23.20;40.00
60371;BME280;48550;40.588;49.684;2023-04-07T05:21:46;101379.69;;;23.46;38.73
60371;BME280;48550;40.588;49.684;2023-04-07T05:24:12;101380.38;;;23.25;39.71
60371;BME280;48550;40.588;49.684;2023-04-07T05:26:38;101385.03;;;23.10;40.03
60371;BME280;48550;40.588;49.684;2023-04-07T05:29:03;101392.69;;;22.38;41.12
60371;BME280;48550;40.588;49.684;2023-04-07T05:31:29;101389.44;;;22.36;40.04
60371;BME280;48550;40.588;49.684;2023-04-07T05:33:55;101388.00;;;22.58;39.43
60371;BME280;48550;40.588;49.684;2023-04-07T05:36:20;101385.25;;;22.95;39.57
60371;BME280;48550;40.588;49.684;2023-04-07T05:38:46;101387.03;;;23.05;39.17
60371;BME280;48550;40.588;49.684;2023-04-07T05:41:12;101393.78;;;23.40;38.12
60371;BME280;48550;40.588;49.684;2023-04-07T05:43:38;101395.22;;;23.37;37.23
60371;BME280;48550;40.588;49.684;2023-04-07T05:46:03;101396.81;;;23.98;36.39
60371;BME280;48550;40.588;49.684;2023-04-07T05:48:29;101395.00;;;24.57;36.36
60371;BME280;48550;40.588;49.684;2023-04-07T05:50:55;101399.22;;;24.27;37.52
60371;BME280;48550;40.588;49.684;2023-04-07T05:53:21;101389.88;;;22.43;42.14
60371;BME280;48550;40.588;49.684;2023-04-07T05:55:46;101396.88;;;22.87;42.53
60371;BME280;48550;40.588;49.684;2023-04-07T05:58:12;101398.97;;;23.41;40.93
60371;BME280;48550;40.588;49.684;2023-04-07T06:00:39;101401.00;;;23.03;40.50
60371;BME280;48550;40.588;49.684;2023-04-07T06:03:05;101394.75;;;22.84;39.09
60371;BME280;48550;40.588;49.684;2023-04-07T06:05:31;101401.22;;;23.53;37.02
60371;BME280;48550;40.588;49.684;2023-04-07T06:07:57;101406.88;;;22.40;38.77
60371;BME280;48550;40.588;49.684;2023-04-07T06:10:22;101407.22;;;22.71;39.25
60371;BME280;48550;40.588;49.684;2023-04-07T06:12:48;101404.09;;;21.16;42.87
60371;BME280;48550;40.588;49.684;2023-04-07T06:15:14;101399.81;;;21.68;43.33
60371;BME280;48550;40.588;49.684;2023-04-07T06:17:40;101400.00;;;21.76;44.17
60371;BME280;48550;40.588;49.684;2023-04-07T06:20:06;101415.00;;;22.45;42.63
60371;BME280;48550;40.588;49.684;2023-04-07T06:22:32;101409.75;;;21.59;44.61
60371;BME280;48550;40.588;49.684;2023-04-07T06:24:57;101406.34;;;20.70;46.78
60371;BME280;48550;40.588;49.684;2023-04-07T06:27:23;101404.13;;;21.45;46.30
60371;BME280;48550;40.588;49.684;2023-04-07T06:29:49;101412.53;;;21.24;46.52
60371;BME280;48550;40.588;49.684;2023-04-07T06:32:14;101406.56;;;20.34;50.45
60371;BME280;48550;40.588;49.684;2023-04-07T06:34:41;101411.38;;;22.07;45.92
60371;BME280;48550;40.588;49.684;2023-04-07T06:37:07;101406.84;;;21.45;48.75
60371;BME280;48550;40.588;49.684;2023-04-07T06:39:32;101402.06;;;21.32;45.47
60371;BME280;48550;40.588;49.684;2023-04-07T06:41:58;101405.38;;;21.58;43.58
60371;BME280;48550;40.588;49.684;2023-04-07T06:44:24;101392.75;;;22.52;42.43
60371;BME280;48550;40.588;49.684;2023-04-07T06:46:49;101393.28;;;21.87;44.52
60371;BME280;48550;40.588;49.684;2023-04-07T06:49:20;101394.75;;;22.04;47.56
60371;BME280;48550;40.588;49.684;2023-04-07T06:51:48;101396.38;;;20.94;48.95
60371;BME280;48550;40.588;49.684;2023-04-07T06:54:13;101392.13;;;20.78;53.30
60371;BME280;48550;40.588;49.684;2023-04-07T06:56:40;101393.31;;;21.35;51.25
60371;BME280;48550;40.588;49.684;2023-04-07T06:59:06;101390.50;;;21.93;50.29
60371;BME280;48550;40.588;49.684;2023-04-07T07:01:32;101386.28;;;20.94;51.15
60371;BME280;48550;40.588;49.684;2023-04-07T07:03:58;101384.88;;;20.09;55.83
60371;BME280;48550;40.588;49.684;2023-04-07T07:06:27;101380.19;;;20.19;55.57
60371;BME280;48550;40.588;49.684;2023-04-07T07:08:53;101383.06;;;18.41;62.42
60371;BME280;48550;40.588;49.684;2023-04-07T07:11:19;101382.22;;;18.26;65.53
60371;BME280;48550;40.588;49.684;2023-04-07T07:13:45;101377.50;;;17.54;69.15
60371;BME280;48550;40.588;49.684;2023-04-07T07:16:12;101379.44;;;16.84;71.72
60371;BME280;48550;40.588;49.684;2023-04-07T07:18:37;101374.84;;;15.87;76.43
60371;BME280;48550;40.588;49.684;2023-04-07T07:21:03;101373.66;;;16.00;76.38
60371;BME280;48550;40.588;49.684;2023-04-07T07:23:29;101373.03;;;15.37;80.62
60371;BME280;48550;40.588;49.684;2023-04-07T07:25:55;101383.38;;;16.23;80.81
60371;BME280;48550;40.588;49.684;2023-04-07T07:28:21;101375.28;;;16.01;79.45
60371;BME280;48550;40.588;49.684;2023-04-07T07:30:48;101371.00;;;16.05;77.14
60371;BME280;48550;40.588;49.684;2023-04-07T07:33:14;101370.81;;;16.11;78.71
60371;BME280;48550;40.588;49.684;2023-04-07T07:35:40;101360.94;;;16.49;77.17
60371;BME280;48550;40.588;49.684;2023-04-07T07:38:06;101362.31;;;16.51;77.00
60371;BME280;48550;40.588;49.684;2023-04-07T07:40:32;101357.03;;;15.91;78.65
60371;BME280;48550;40.588;49.684;2023-04-07T07:42:59;101362.97;;;15.33;82.13
60371;BME280;48550;40.588;49.684;2023-04-07T07:45:25;101357.94;;;15.58;82.43
60371;BME280;48550;40.588;49.684;2023-04-07T07:47:51;101351.28;;;15.66;83.31
60371;BME280;48550;40.588;49.684;2023-04-07T07:50:17;101357.72;;;15.81;86.26
60371;BME280;48550;40.588;49.684;2023-04-07T07:52:42;101338.63;;;15.54;85.03
60371;BME280;48550;40.588;49.684;2023-04-07T07:55:08;101337.09;;;15.58;85.56
60371;BME280;48550;40.588;49.684;2023-04-07T07:57:34;101334.88;;;15.17;87.28
60371;BME280;48550;40.588;49.684;2023-04-07T08:00:01;101346.72;;;15.33;83.17
60371;BME280;48550;40.588;49.684;2023-04-07T08:02:27;101345.19;;;15.20;83.39
60371;BME280;48550;40.588;49.684;2023-04-07T08:04:56;101345.06;;;14.93;85.96
60371;BME280;48550;40.588;49.684;2023-04-07T08:07:22;101344.16;;;15.04;76.20
60371;BME280;48550;40.588;49.684;2023-04-07T08:09:47;101341.28;;;14.94;73.10
60371;BME280;48550;40.588;49.684;2023-04-07T08:12:14;101351.03;;;14.95;76.64
60371;BME280;48550;40.588;49.684;2023-04-07T08:14:40;101367.44;;;14.31;78.61
60371;BME280;48550;40.588;49.684;2023-04-07T08:17:05;101360.31;;;13.74;82.30
60371;BME280;48550;40.588;49.684;2023-04-07T08:19:31;101356.34;;;13.76;82.89
60371;BME280;48550;40.588;49.684;2023-04-07T08:21:57;101368.41;;;14.25;81.25
60371;BME280;48550;40.588;49.684;2023-04-07T08:24:23;101366.53;;;14.26;80.44
60371;BME280;48550;40.588;49.684;2023-04-07T08:26:48;101369.66;;;13.94;84.91
60371;BME280;48550;40.588;49.684;2023-04-07T08:29:14;101362.00;;;14.03;80.85
60371;BME280;48550;40.588;49.684;2023-04-07T08:31:40;101364.41;;;13.76;81.98
60371;BME280;48550;40.588;49.684;2023-04-07T08:34:06;101354.41;;;13.88;81.96
60371;BME280;48550;40.588;49.684;2023-04-07T08:36:31;101358.66;;;14.24;76.19
60371;BME280;48550;40.588;49.684;2023-04-07T08:38:57;101345.16;;;14.24;74.28
60371;BME280;48550;40.588;49.684;2023-04-07T08:41:35;101334.59;;;14.23;76.34
60371;BME280;48550;40.588;49.684;2023-04-07T08:44:02;101332.31;;;14.60;73.04
60371;BME280;48550;40.588;49.684;2023-04-07T08:46:28;101335.84;;;14.77;71.47
60371;BME280;48550;40.588;49.684;2023-04-07T08:48:55;101343.00;;;15.00;71.40
60371;BME280;48550;40.588;49.684;2023-04-07T08:51:31;101354.28;;;15.14;71.23
60371;BME280;48550;40.588;49.684;2023-04-07T08:54:08;101345.91;;;15.32;69.86
60371;BME280;48550;40.588;49.684;2023-04-07T08:56:37;101338.56;;;15.11;66.96
60371;BME280;48550;40.588;49.684;2023-04-07T08:59:14;101335.56;;;14.90;68.82
60371;BME280;48550;40.588;49.684;2023-04-07T09:01:43;101328.56;;;14.61;69.65
60371;BME280;48550;40.588;49.684;2023-04-07T09:04:09;101341.91;;;14.39;75.59
60371;BME280;48550;40.588;49.684;2023-04-07T09:06:36;101341.31;;;14.49;74.48
60371;BME280;48550;40.588;49.684;2023-04-07T09:09:03;101346.88;;;14.42;76.93
60371;BME280;48550;40.588;49.684;2023-04-07T09:11:36;101351.09;;;14.38;76.83
60371;BME280;48550;40.588;49.684;2023-04-07T09:14:01;101351.44;;;14.13;79.00
60371;BME280;48550;40.588;49.684;2023-04-07T09:16:28;101350.28;;;14.38;77.79
60371;BME280;48550;40.588;49.684;2023-04-07T09:18:55;101338.41;;;14.39;75.47
60371;BME280;48550;40.588;49.684;2023-04-07T09:21:21;101328.41;;;14.68;73.82
60371;BME280;48550;40.588;49.684;2023-04-07T09:23:46;101330.78;;;14.81;71.28
60371;BME280;48550;40.588;49.684;2023-04-07T09:26:25;101345.69;;;14.38;77.76
60371;BME280;48550;40.588;49.684;2023-04-07T09:28:57;101345.66;;;13.81;70.49
60371;BME280;48550;40.588;49.684;2023-04-07T09:31:46;101350.91;;;13.88;74.32
60371;BME280;48550;40.588;49.684;2023-04-07T09:34:28;101340.56;;;13.96;72.22
60371;BME280;48550;40.588;49.684;2023-04-07T09:36:54;101344.66;;;13.99;73.79
60371;BME280;48550;40.588;49.684;2023-04-07T09:39:21;101330.88;;;13.72;74.61
60371;BME280;48550;40.588;49.684;2023-04-07T09:41:47;101333.00;;;14.10;74.89
60371;BME280;48550;40.588;49.684;2023-04-07T09:44:13;101328.31;;;14.06;72.16
60371;BME280;48550;40.588;49.684;2023-04-07T09:46:56;101326.56;;;13.59;75.30
60371;BME280;48550;40.588;49.684;2023-04-07T09:49:23;101328.78;;;13.74;79.94
60371;BME280;48550;40.588;49.684;2023-04-07T09:51:57;101335.25;;;14.13;80.65
60371;BME280;48550;40.588;49.684;2023-04-07T09:54:38;101338.16;;;14.12;78.33
60371;BME280;48550;40.588;49.684;2023-04-07T09:57:07;101349.53;;;13.74;79.57
60371;BME280;48550;40.588;49.684;2023-04-07T09:59:34;101352.31;;;13.90;82.45
60371;BME280;48550;40.588;49.684;2023-04-07T10:02:01;101347.00;;;13.95;80.08
60371;BME280;48550;40.588;49.684;2023-04-07T10:04:27;101350.28;;;13.34;83.93
60371;BME280;48550;40.588;49.684;2023-04-07T10:06:54;101353.06;;;13.04;89.00
60371;BME280;48550;40.588;49.684;2023-04-07T10:09:25;101355.63;;;12.87;94.53
60371;BME280;48550;40.588;49.684;2023-04-07T10:11:52;101355.50;;;12.82;100.00
60371;BME280;48550;40.588;49.684;2023-04-07T10:14:20;101368.28;;;12.98;99.25
60371;BME280;48550;40.588;49.684;2023-04-07T10:16:46;101367.28;;;12.69;97.95
60371;BME280;48550;40.588;49.684;2023-04-07T10:19:14;101373.41;;;12.47;99.92
60371;BME280;48550;40.588;49.684;2023-04-07T10:21:42;101364.69;;;12.33;100.00
60371;BME280;48550;40.588;49.684;2023-04-07T10:25:11;101369.44;;;12.49;100.00
60371;BME280;48550;40.588;49.684;2023-04-07T10:27:10;101380.91;;;12.86;100.00
60371;BME280;48550;40.588;49.684;2023-04-07T10:29:41;101365.53;;;12.63;100.00
60371;BME280;48550;40.588;49.684;2023-04-07T10:32:07;101370.44;;;12.66;100.00
60371;BME280;48550;40.588;49.684;2023-04-07T10:37:22;101372.69;;;12.81;100.00
60371;BME280;48550;40.588;49.684;2023-04-07T10:39:49;101371.31;;;12.49;100.00
60371;BME280;48550;40.588;49.684;2023-04-07T10:45:07;101366.88;;;12.24;100.00
60371;BME280;48550;40.588;49.684;2023-04-07T10:47:34;101360.97;;;12.34;100.00
60371;BME280;48550;40.588;49.684;2023-04-07T10:50:21;101363.78;;;12.69;100.00
60371;BME280;48550;40.588;49.684;2023-04-07T10:53:00;101357.84;;;12.90;100.00
60371;BME280;48550;40.588;49.684;2023-04-07T10:55:39;101350.31;;;12.69;100.00
60371;BME280;48550;40.588;49.684;2023-04-07T11:00:39;101348.94;;;12.48;100.00
60371;BME280;48550;40.588;49.684;2023-04-07T11:03:11;101349.72;;;12.67;100.00
60371;BME280;48550;40.588;49.684;2023-04-07T11:05:39;101352.53;;;12.72;100.00
60371;BME280;48550;40.588;49.684;2023-04-07T11:08:05;101353.84;;;12.39;100.00
60371;BME280;48550;40.588;49.684;2023-04-07T11:10:35;101356.28;;;12.71;100.00
60371;BME280;48550;40.588;49.684;2023-04-07T11:13:06;101353.78;;;12.58;100.00
60371;BME280;48550;40.588;49.684;2023-04-07T11:15:36;101354.03;;;12.26;100.00
60371;BME280;48550;40.588;49.684;2023-04-07T11:18:13;101362.69;;;12.28;100.00
60371;BME280;48550;40.588;49.684;2023-04-07T11:20:47;101359.81;;;12.41;100.00
60371;BME280;48550;40.588;49.684;2023-04-07T11:23:15;101361.50;;;12.24;100.00
60371;BME280;48550;40.588;49.684;2023-04-07T11:25:42;101372.31;;;12.36;100.00
60371;BME280;48550;40.588;49.684;2023-04-07T11:28:09;101374.09;;;11.94;100.00
60371;BME280;48550;40.588;49.684;2023-04-07T11:30:36;101373.75;;;11.90;100.00
60371;BME280;48550;40.588;49.684;2023-04-07T11:33:03;101391.72;;;12.08;100.00
60371;BME280;48550;40.588;49.684;2023-04-07T11:35:29;101387.25;;;12.02;100.00
60371;BME280;48550;40.588;49.684;2023-04-07T11:37:58;101369.78;;;11.93;100.00
60371;BME280;48550;40.588;49.684;2023-04-07T11:40:32;101380.44;;;11.81;100.00
60371;BME280;48550;40.588;49.684;2023-04-07T11:42:59;101377.53;;;11.83;100.00
60371;BME280;48550;40.588;49.684;2023-04-07T11:45:26;101380.25;;;11.76;100.00
60371;BME280;48550;40.588;49.684;2023-04-07T11:47:51;101375.28;;;11.80;100.00
60371;BME280;48550;40.588;49.684;2023-04-07T11:50:37;101383.47;;;11.66;100.00
60371;BME280;48550;40.588;49.684;2023-04-07T11:53:03;101380.47;;;11.56;100.00
60371;BME280;48550;40.588;49.684;2023-04-07T11:55:29;101389.47;;;11.87;100.00
60371;BME280;48550;40.588;49.684;2023-04-07T11:57:55;101393.50;;;11.77;100.00
60371;BME280;48550;40.588;49.684;2023-04-07T12:00:29;101398.09;;;11.70;100.00
60371;BME280;48550;40.588;49.684;2023-04-07T12:02:55;101403.34;;;11.90;100.00
60371;BME280;48550;40.588;49.684;2023-04-07T12:05:20;101409.22;;;12.17;100.00
60371;BME280;48550;40.588;49.684;2023-04-07T12:07:53;101422.53;;;12.12;100.00
60371;BME280;48550;40.588;49.684;2023-04-07T12:10:20;101421.63;;;12.00;100.00
60371;BME280;48550;40.588;49.684;2023-04-07T12:12:46;101406.53;;;11.99;100.00
60371;BME280;48550;40.588;49.684;2023-04-07T12:15:12;101402.44;;;11.96;100.00
60371;BME280;48550;40.588;49.684;2023-04-07T12:17:42;101404.66;;;11.81;100.00
60371;BME280;48550;40.588;49.684;2023-04-07T12:20:09;101418.69;;;11.83;100.00
60371;BME280;48550;40.588;49.684;2023-04-07T12:22:35;101424.22;;;11.88;100.00
60371;BME280;48550;40.588;49.684;2023-04-07T12:25:01;101421.16;;;11.85;100.00
60371;BME280;48550;40.588;49.684;2023-04-07T12:27:27;101423.84;;;11.85;100.00
60371;BME280;48550;40.588;49.684;2023-04-07T12:29:52;101415.28;;;11.94;100.00
60371;BME280;48550;40.588;49.684;2023-04-07T12:32:18;101417.00;;;12.07;100.00
60371;BME280;48550;40.588;49.684;2023-04-07T12:34:44;101422.69;;;11.99;100.00
60371;BME280;48550;40.588;49.684;2023-04-07T12:37:09;101439.22;;;11.77;100.00
60371;BME280;48550;40.588;49.684;2023-04-07T12:39:35;101436.53;;;11.77;100.00
60371;BME280;48550;40.588;49.684;2023-04-07T12:42:01;101441.72;;;11.72;100.00
60371;BME280;48550;40.588;49.684;2023-04-07T12:44:26;101433.50;;;11.67;100.00
60371;BME280;48550;40.588;49.684;2023-04-07T12:46:52;101444.19;;;11.74;100.00
60371;BME280;48550;40.588;49.684;2023-04-07T12:49:18;101448.75;;;11.73;100.00
60371;BME280;48550;40.588;49.684;2023-04-07T12:51:43;101445.31;;;11.66;100.00